Time;durP1;ratioP1;P1;durP2;ratioP2;P2;SDS_P1;SDS_P2;PMS_P1;PMS_P2;Temp;Humidity;BMP_temperature;BMP_pressure;BME280_temperature;BME280_humidity;BME280_pressure;Samples;Min_cycle;Max_cycle;Signal;HPM_P1;HPM_P2
2023/12/23 00:00:07;;;;;;;;;;;;;;;11.90;82.14;101103.88;7300465;19;20496;-70
2023/12/23 00:02:34;;;;;;;;;;;;;;;11.90;82.95;101101.22;7303495;19;19972;-69
2023/12/23 00:05:00;;;;;;;;;;;;;;;11.92;83.47;101107.19;7296635;19;19933;-69
2023/12/23 00:07:27;;;;;;;;;;;;;;;11.92;83.59;101102.75;7289997;19;19911;-68
2023/12/23 00:09:54;;;;;;;;;;;;;;;11.92;83.08;101101.91;7286759;19;20553;-72
2023/12/23 00:12:21;;;;;;;;;;;;;;;11.93;83.48;101108.84;7322036;19;19914;-68
2023/12/23 00:14:48;;;;;;;;;;;;;;;11.91;83.13;101095.81;7334197;19;19917;-69
2023/12/23 00:17:15;;;;;;;;;;;;;;;11.91;82.85;101100.25;7299092;19;19915;-69
2023/12/23 00:19:42;;;;;;;;;;;;;;;11.90;82.92;101101.22;7313110;19;19907;-69
2023/12/23 00:22:12;;;;;;;;;;;;;;;11.89;82.70;101089.03;7307161;19;21475;-68
2023/12/23 00:24:39;;;;;;;;;;;;;;;11.88;82.55;101088.22;7295209;19;19923;-68
2023/12/23 00:27:05;;;;;;;;;;;;;;;11.89;83.38;101096.94;7291290;19;20605;-68
2023/12/23 00:29:32;;;;;;;;;;;;;;;11.90;82.99;101096.78;7299013;19;19931;-69
2023/12/23 00:32:03;;;;;;;;;;;;;;;11.86;83.04;101082.25;7285344;19;19930;-69
2023/12/23 00:34:35;;;;;;;;;;;;;;;11.89;83.63;101083.75;7285194;19;19929;-67
2023/12/23 00:37:02;;;;;;;;;;;;;;;11.88;83.12;101074.22;7291250;19;20382;-70
2023/12/23 00:39:28;;;;;;;;;;;;;;;11.85;83.14;101069.22;7296425;19;22216;-69
2023/12/23 00:41:56;;;;;;;;;;;;;;;11.86;83.31;101057.72;7304591;19;19923;-67
2023/12/23 00:44:23;;;;;;;;;;;;;;;11.84;83.25;101068.41;7303021;19;20231;-68
2023/12/23 00:46:49;;;;;;;;;;;;;;;11.84;83.79;101068.41;7291229;19;19929;-68
2023/12/23 00:49:16;;;;;;;;;;;;;;;11.87;82.99;101076.00;7301250;19;20206;-67
2023/12/23 00:51:43;;;;;;;;;;;;;;;11.88;83.21;101063.66;7299465;19;19926;-68
2023/12/23 00:54:10;;;;;;;;;;;;;;;11.84;82.04;101060.50;7298840;19;19925;-68
2023/12/23 00:56:37;;;;;;;;;;;;;;;11.84;82.85;101049.94;7305957;19;19933;-68
2023/12/23 00:59:04;;;;;;;;;;;;;;;11.85;82.65;101045.50;7282240;19;20389;-69
2023/12/23 01:01:31;;;;;;;;;;;;;;;11.84;82.70;101047.31;7307916;19;20010;-68
2023/12/23 01:03:58;;;;;;;;;;;;;;;11.85;82.56;101045.50;7315584;19;19922;-69
2023/12/23 01:06:24;;;;;;;;;;;;;;;11.82;82.33;101045.81;7313619;19;19919;-67
2023/12/23 01:08:51;;;;;;;;;;;;;;;11.85;82.59;101051.59;7301211;19;19930;-67
2023/12/23 01:11:18;;;;;;;;;;;;;;;11.86;82.15;101037.44;7289106;19;19933;-68
2023/12/23 01:13:45;;;;;;;;;;;;;;;11.84;82.07;101035.94;7292274;19;19914;-68
2023/12/23 01:16:12;;;;;;;;;;;;;;;11.78;82.50;101047.13;7304100;19;19937;-68
2023/12/23 01:18:39;;;;;;;;;;;;;;;11.78;82.99;101053.22;7294698;19;20479;-68
2023/12/23 01:21:06;;;;;;;;;;;;;;;11.78;82.47;101058.50;7283872;19;20022;-69
2023/12/23 01:23:34;;;;;;;;;;;;;;;11.78;82.55;101049.75;7286035;19;21086;-68
2023/12/23 01:26:03;;;;;;;;;;;;;;;11.82;83.16;101053.72;7281447;19;19940;-68
2023/12/23 01:28:30;;;;;;;;;;;;;;;11.83;82.97;101052.75;7292712;19;19922;-68
2023/12/23 01:30:57;;;;;;;;;;;;;;;11.83;81.91;101050.13;7298826;19;20574;-69
2023/12/23 01:33:24;;;;;;;;;;;;;;;11.84;82.11;101055.22;7301375;19;19919;-69
2023/12/23 01:35:50;;;;;;;;;;;;;;;11.81;81.88;101049.44;7297021;19;19950;-68
2023/12/23 01:38:17;;;;;;;;;;;;;;;11.81;82.64;101041.53;7295450;19;20383;-68
2023/12/23 01:40:44;;;;;;;;;;;;;;;11.80;82.68;101043.31;7306172;19;19926;-67
2023/12/23 01:43:11;;;;;;;;;;;;;;;11.80;82.42;101024.03;7311925;19;20554;-67
2023/12/23 01:45:38;;;;;;;;;;;;;;;11.77;82.30;101024.38;7310460;19;20425;-68
2023/12/23 01:48:06;;;;;;;;;;;;;;;11.74;82.61;101014.94;7313690;19;19922;-68
2023/12/23 01:50:33;;;;;;;;;;;;;;;11.79;83.70;101004.75;7286696;19;19930;-69
2023/12/23 01:53:01;;;;;;;;;;;;;;;11.76;83.19;100989.28;7287101;19;20748;-69
2023/12/23 01:55:30;;;;;;;;;;;;;;;11.76;82.08;100985.81;7292212;19;19921;-69
2023/12/23 01:58:02;;;;;;;;;;;;;;;11.72;82.14;100977.34;7309881;19;19927;-68
2023/12/23 02:00:29;;;;;;;;;;;;;;;11.65;82.22;100973.69;7291929;19;19914;-68
2023/12/23 02:02:56;;;;;;;;;;;;;;;11.62;82.72;100973.19;7295844;19;19923;-68
2023/12/23 02:05:24;;;;;;;;;;;;;;;11.62;83.00;100976.66;7274811;19;20630;-67
2023/12/23 02:07:51;;;;;;;;;;;;;;;11.64;83.24;100993.09;7300554;19;20049;-67
2023/12/23 02:10:19;;;;;;;;;;;;;;;11.66;83.86;100999.06;7284250;19;19923;-68
2023/12/23 02:12:48;;;;;;;;;;;;;;;11.69;83.80;101000.53;7299371;19;19922;-68
2023/12/23 02:15:33;;;;;;;;;;;;;;;11.68;83.92;101002.38;7289287;19;19937;-67
2023/12/23 02:18:00;;;;;;;;;;;;;;;11.71;83.70;101001.22;7314438;19;19927;-68
2023/12/23 02:20:27;;;;;;;;;;;;;;;11.73;83.98;100999.31;7303980;19;19926;-68
2023/12/23 02:22:54;;;;;;;;;;;;;;;11.71;84.11;100994.16;7294783;19;20952;-69
2023/12/23 02:25:28;;;;;;;;;;;;;;;11.71;83.57;100999.44;7296099;19;19922;-69
2023/12/23 02:28:06;;;;;;;;;;;;;;;11.70;83.40;100991.66;7298680;19;22004;-69
2023/12/23 02:30:35;;;;;;;;;;;;;;;11.70;83.99;100996.94;7296169;19;19925;-68
2023/12/23 02:33:02;;;;;;;;;;;;;;;11.72;84.26;100993.19;7288170;19;19961;-68
2023/12/23 02:35:33;;;;;;;;;;;;;;;11.73;84.58;100994.88;7289087;19;19990;-69
2023/12/23 02:37:59;;;;;;;;;;;;;;;11.71;83.93;100993.31;7298896;19;19923;-69
2023/12/23 02:40:27;;;;;;;;;;;;;;;11.70;84.67;100999.56;7289924;19;19918;-67
2023/12/23 02:42:53;;;;;;;;;;;;;;;11.71;84.44;101004.69;7281014;19;19994;-68
2023/12/23 02:45:23;;;;;;;;;;;;;;;11.71;84.97;101001.22;7282858;19;20898;-68
2023/12/23 02:47:50;;;;;;;;;;;;;;;11.71;84.65;100991.50;7279368;19;19923;-68
2023/12/23 02:50:17;;;;;;;;;;;;;;;11.71;85.49;100991.50;7302576;19;20287;-68
2023/12/23 02:52:44;;;;;;;;;;;;;;;11.71;86.12;101002.06;7286867;19;19921;-67
2023/12/23 02:55:11;;;;;;;;;;;;;;;11.68;85.73;100985.75;7286320;19;20404;-69
2023/12/23 02:57:38;;;;;;;;;;;;;;;11.68;86.24;100985.75;7276210;19;20441;-69
2023/12/23 03:00:06;;;;;;;;;;;;;;;11.70;86.58;100986.38;7297818;19;19926;-68
2023/12/23 03:02:32;;;;;;;;;;;;;;;11.74;86.81;100993.84;7290725;19;20497;-68
2023/12/23 03:04:59;;;;;;;;;;;;;;;11.75;86.40;100979.69;7308266;19;20111;-68
2023/12/23 03:07:27;;;;;;;;;;;;;;;11.73;86.37;100980.84;7297134;19;19927;-67
2023/12/23 03:09:54;;;;;;;;;;;;;;;11.71;86.53;100975.69;7292743;19;20577;-68
2023/12/23 03:12:21;;;;;;;;;;;;;;;11.70;87.37;100968.78;7288087;19;20558;-68
2023/12/23 03:14:47;;;;;;;;;;;;;;;11.72;87.38;100968.63;7274120;19;22637;-68
2023/12/23 03:17:14;;;;;;;;;;;;;;;11.74;87.67;100967.50;7289457;19;19926;-68
2023/12/23 03:19:42;;;;;;;;;;;;;;;11.73;87.61;100971.16;7288790;19;19927;-68
2023/12/23 03:22:12;;;;;;;;;;;;;;;11.75;87.97;100971.78;7288543;19;20740;-68
2023/12/23 03:24:39;;;;;;;;;;;;;;;11.72;87.85;100964.19;7290445;19;20837;-69
2023/12/23 03:27:06;;;;;;;;;;;;;;;11.73;87.91;100957.97;7297387;19;19922;-68
2023/12/23 03:29:33;;;;;;;;;;;;;;;11.72;88.07;100945.72;7306274;19;20645;-67
2023/12/23 03:32:07;;;;;;;;;;;;;;;11.71;89.02;100951.97;7288376;19;19930;-68
2023/12/23 03:34:34;;;;;;;;;;;;;;;11.69;89.05;100951.28;7299327;19;19919;-69
2023/12/23 03:37:01;;;;;;;;;;;;;;;11.69;88.95;100958.38;7288467;19;19929;-68
2023/12/23 03:39:28;;;;;;;;;;;;;;;11.70;88.93;100946.84;7297353;19;19919;-68
2023/12/23 03:41:55;;;;;;;;;;;;;;;11.68;89.83;100952.31;7286207;19;19925;-69
2023/12/23 03:44:21;;;;;;;;;;;;;;;11.71;89.75;100951.16;7283671;19;19933;-68
2023/12/23 03:46:48;;;;;;;;;;;;;;;11.69;89.51;100955.75;7298874;19;19940;-68
2023/12/23 03:49:15;;;;;;;;;;;;;;;11.71;89.63;100953.78;7293376;19;19959;-68
2023/12/23 03:51:42;;;;;;;;;;;;;;;11.71;89.74;100951.16;7281469;19;19923;-68
2023/12/23 03:54:09;;;;;;;;;;;;;;;11.72;89.61;100952.81;7287781;19;19922;-69
2023/12/23 03:56:36;;;;;;;;;;;;;;;11.72;89.24;100951.00;7299340;19;19926;-68
2023/12/23 03:59:03;;;;;;;;;;;;;;;11.70;89.41;100941.59;7311402;19;20037;-68
2023/12/23 04:01:29;;;;;;;;;;;;;;;11.68;89.36;100935.66;7300493;19;19933;-68
2023/12/23 04:03:56;;;;;;;;;;;;;;;11.65;89.59;100936.78;7303237;19;22393;-67
2023/12/23 04:06:25;;;;;;;;;;;;;;;11.64;89.56;100936.94;7277852;19;19919;-69
2023/12/23 04:08:52;;;;;;;;;;;;;;;11.64;89.53;100929.03;7294739;19;20167;-69
2023/12/23 04:11:19;;;;;;;;;;;;;;;11.62;89.34;100934.47;7294830;19;19923;-69
2023/12/23 04:13:46;;;;;;;;;;;;;;;11.59;89.83;100914.53;7287951;19;19919;-68
2023/12/23 04:16:13;;;;;;;;;;;;;;;11.63;89.61;100940.56;7286952;19;19961;-68
2023/12/23 04:18:41;;;;;;;;;;;;;;;11.59;89.87;100924.22;7295749;19;19915;-68
2023/12/23 04:21:09;;;;;;;;;;;;;;;11.60;89.70;100920.63;7285487;19;20331;-68
2023/12/23 04:23:36;;;;;;;;;;;;;;;11.57;89.52;100932.31;7296391;19;20487;-67
2023/12/23 04:26:03;;;;;;;;;;;;;;;11.57;89.43;100927.03;7299394;19;19998;-68
2023/12/23 04:28:30;;;;;;;;;;;;;;;11.52;89.28;100915.31;7293478;19;19919;-68
2023/12/23 04:30:57;;;;;;;;;;;;;;;11.52;89.28;100915.31;7312216;19;20453;-67
2023/12/23 04:33:24;;;;;;;;;;;;;;;11.52;89.92;100900.34;7297300;19;19945;-69
2023/12/23 04:35:51;;;;;;;;;;;;;;;11.54;89.88;100906.25;7301553;19;19919;-68
2023/12/23 04:38:18;;;;;;;;;;;;;;;11.53;89.63;100899.31;7320909;19;20895;-68
2023/12/23 04:40:45;;;;;;;;;;;;;;;11.48;89.18;100909.50;7304301;19;19927;-68
2023/12/23 04:43:15;;;;;;;;;;;;;;;11.47;90.16;100892.06;7292384;19;19923;-68
2023/12/23 04:45:41;;;;;;;;;;;;;;;11.46;89.77;100906.22;7302755;19;19929;-67
2023/12/23 04:48:08;;;;;;;;;;;;;;;11.47;89.28;100913.16;7288408;19;20006;-67
2023/12/23 04:50:35;;;;;;;;;;;;;;;11.43;89.22;100903.06;7286095;19;20113;-69
2023/12/23 04:53:02;;;;;;;;;;;;;;;11.41;89.68;100895.34;7296666;19;20380;-69
2023/12/23 04:55:29;;;;;;;;;;;;;;;11.40;89.64;100898.94;7291106;19;19927;-69
2023/12/23 04:57:56;;;;;;;;;;;;;;;11.40;89.47;100901.56;7286437;19;19919;-69
2023/12/23 05:00:22;;;;;;;;;;;;;;;11.40;89.06;100895.47;7299701;19;19975;-70
2023/12/23 05:02:49;;;;;;;;;;;;;;;11.39;89.23;100885.91;7290050;19;19930;-69
2023/12/23 05:05:17;;;;;;;;;;;;;;;11.43;89.11;100879.34;7292320;19;20056;-69
2023/12/23 05:07:44;;;;;;;;;;;;;;;11.46;89.28;100861.44;7302478;19;20355;-69
2023/12/23 05:10:11;;;;;;;;;;;;;;;11.47;89.69;100857.81;7297407;19;19927;-69
2023/12/23 05:12:38;;;;;;;;;;;;;;;11.49;89.41;100858.47;7289872;19;20143;-69
2023/12/23 05:15:05;;;;;;;;;;;;;;;11.51;89.87;100859.16;7299333;19;19919;-68
2023/12/23 05:17:32;;;;;;;;;;;;;;;11.54;89.56;100858.00;7290602;19;19917;-68
2023/12/23 05:19:59;;;;;;;;;;;;;;;11.53;88.84;100853.72;7298798;19;21361;-69
2023/12/23 05:22:26;;;;;;;;;;;;;;;11.54;88.47;100861.47;7296769;19;19919;-67
2023/12/23 05:24:52;;;;;;;;;;;;;;;11.51;87.95;100868.88;7296681;19;20313;-68
2023/12/23 05:27:19;;;;;;;;;;;;;;;11.52;88.69;100879.25;7295892;19;19927;-68
2023/12/23 05:29:46;;;;;;;;;;;;;;;11.57;88.64;100879.59;7295394;19;21725;-68
2023/12/23 05:32:13;;;;;;;;;;;;;;;11.62;88.32;100875.66;7287440;19;19915;-68
2023/12/23 05:34:42;;;;;;;;;;;;;;;11.64;88.00;100878.94;7307276;19;19941;-69
2023/12/23 05:37:09;;;;;;;;;;;;;;;11.65;87.78;100878.81;7291262;19;20352;-68
2023/12/23 05:39:36;;;;;;;;;;;;;;;11.65;87.75;100894.63;7302780;19;19980;-68
2023/12/23 05:42:03;;;;;;;;;;;;;;;11.69;87.79;100895.13;7299340;19;20269;-70
2023/12/23 05:44:30;;;;;;;;;;;;;;;11.71;87.42;100882.63;7292570;19;20257;-68
2023/12/23 05:46:58;;;;;;;;;;;;;;;11.72;88.13;100874.56;7297226;19;20626;-69
2023/12/23 05:49:25;;;;;;;;;;;;;;;11.75;87.79;100878.72;7299209;19;19919;-68
2023/12/23 05:51:52;;;;;;;;;;;;;;;11.75;87.79;100882.16;7289611;19;19918;-69
2023/12/23 05:54:19;;;;;;;;;;;;;;;11.78;87.72;100888.94;7298712;19;19923;-68
2023/12/23 05:56:46;;;;;;;;;;;;;;;11.79;87.27;100872.13;7289010;19;19945;-68
2023/12/23 05:59:13;;;;;;;;;;;;;;;11.81;87.37;100875.44;7275745;19;20512;-68
2023/12/23 06:01:40;;;;;;;;;;;;;;;11.86;87.10;100886.34;7297526;19;20326;-67
2023/12/23 06:04:07;;;;;;;;;;;;;;;11.89;86.43;100888.63;7293180;19;19919;-69
2023/12/23 06:06:34;;;;;;;;;;;;;;;11.91;86.22;100876.13;7295073;19;20495;-67
2023/12/23 06:09:01;;;;;;;;;;;;;;;11.94;85.82;100875.81;7290479;19;19922;-69
2023/12/23 06:11:28;;;;;;;;;;;;;;;11.97;85.01;100883.41;7297448;19;19949;-68
2023/12/23 06:13:55;;;;;;;;;;;;;;;11.98;85.31;100879.78;7284921;19;20137;-68
2023/12/23 06:16:22;;;;;;;;;;;;;;;12.03;85.55;100888.03;7294655;19;19925;-68
2023/12/23 06:18:49;;;;;;;;;;;;;;;12.04;85.44;100889.66;7279931;19;19915;-67
2023/12/23 06:21:16;;;;;;;;;;;;;;;12.04;85.39;100879.13;7303912;19;19926;-68
2023/12/23 06:23:43;;;;;;;;;;;;;;;12.03;85.13;100880.13;7304214;19;19919;-69
2023/12/23 06:26:10;;;;;;;;;;;;;;;12.01;84.81;100874.19;7297142;19;19934;-69
2023/12/23 06:28:37;;;;;;;;;;;;;;;12.01;84.70;100879.47;7302606;19;19925;-67
2023/12/23 06:31:04;;;;;;;;;;;;;;;12.01;84.68;100890.00;7289662;19;19914;-68
2023/12/23 06:33:31;;;;;;;;;;;;;;;12.03;84.07;100880.13;7286710;19;20147;-69
2023/12/23 06:35:58;;;;;;;;;;;;;;;12.04;84.21;100881.75;7284585;19;20379;-68
2023/12/23 06:38:25;;;;;;;;;;;;;;;12.06;84.29;100877.16;7292472;19;20565;-69
2023/12/23 06:40:52;;;;;;;;;;;;;;;12.05;84.11;100872.88;7290597;19;20265;-68
2023/12/23 06:43:19;;;;;;;;;;;;;;;12.06;83.87;100871.88;7291329;19;20062;-68
2023/12/23 06:46:08;;;;;;;;;;;;;;;12.07;84.52;100881.47;7291057;19;19910;-67
2023/12/23 06:48:35;;;;;;;;;;;;;;;12.08;84.42;100882.28;7276726;19;20382;-68
2023/12/23 06:51:03;;;;;;;;;;;;;;;12.10;84.76;100878.47;7276090;19;19919;-68
2023/12/23 06:53:30;;;;;;;;;;;;;;;12.09;84.38;100883.94;7290660;19;20006;-69
2023/12/23 06:55:57;;;;;;;;;;;;;;;12.05;84.56;100878.13;7284707;19;20561;-69
2023/12/23 06:58:28;;;;;;;;;;;;;;;12.07;84.92;100872.72;7281283;19;20286;-67
2023/12/23 07:00:58;;;;;;;;;;;;;;;12.07;85.33;100878.00;7302482;19;20410;-69
2023/12/23 07:03:26;;;;;;;;;;;;;;;12.07;85.00;100872.72;7283318;19;19986;-68
2023/12/23 07:05:53;;;;;;;;;;;;;;;12.07;85.17;100891.19;7279053;19;19923;-69
2023/12/23 07:08:20;;;;;;;;;;;;;;;12.06;85.42;100890.34;7298825;19;20381;-68
2023/12/23 07:10:48;;;;;;;;;;;;;;;12.06;85.26;100894.78;7295642;19;19919;-68
2023/12/23 07:13:17;;;;;;;;;;;;;;;12.06;85.40;100885.06;7289410;19;21159;-68
2023/12/23 07:15:43;;;;;;;;;;;;;;;12.06;85.03;100886.88;7301354;19;20268;-68
2023/12/23 07:18:10;;;;;;;;;;;;;;;12.03;85.21;100893.31;7289849;19;20413;-68
2023/12/23 07:20:39;;;;;;;;;;;;;;;12.04;86.11;100888.88;7289603;19;20118;-68
2023/12/23 07:23:12;;;;;;;;;;;;;;;12.04;86.54;100889.66;7295293;19;20533;-70
2023/12/23 07:25:38;;;;;;;;;;;;;;;12.03;87.17;100887.22;7295555;19;19911;-69
2023/12/23 07:28:06;;;;;;;;;;;;;;;12.02;86.96;100894.31;7311616;19;19911;-67
2023/12/23 07:30:33;;;;;;;;;;;;;;;12.04;87.28;100888.88;7306266;19;20262;-68
2023/12/23 07:33:00;;;;;;;;;;;;;;;12.06;87.63;100902.72;7301050;19;20256;-67
2023/12/23 07:35:27;;;;;;;;;;;;;;;12.06;87.35;100898.25;7309951;19;19923;-68
2023/12/23 07:37:54;;;;;;;;;;;;;;;12.08;87.50;100882.28;7298948;19;20357;-68
2023/12/23 07:40:21;;;;;;;;;;;;;;;12.11;87.83;100885.41;7298286;19;20726;-68
2023/12/23 07:42:48;;;;;;;;;;;;;;;12.12;87.65;100888.88;7307798;19;20357;-69
2023/12/23 07:45:16;;;;;;;;;;;;;;;12.11;87.37;100879.31;7311000;19;19934;-68
2023/12/23 07:47:46;;;;;;;;;;;;;;;12.08;87.33;100879.66;7289161;19;19930;-68
2023/12/23 07:50:13;;;;;;;;;;;;;;;12.05;87.45;100885.22;7305605;19;19918;-68
2023/12/23 07:52:40;;;;;;;;;;;;;;;12.05;87.94;100885.22;7307192;19;19919;-67
2023/12/23 07:55:07;;;;;;;;;;;;;;;12.04;87.96;100887.03;7299858;19;19915;-68
2023/12/23 07:57:34;;;;;;;;;;;;;;;12.02;87.96;100885.56;7282416;19;20631;-68
2023/12/23 08:00:06;;;;;;;;;;;;;;;12.01;88.01;100892.66;7309493;19;19918;-68
2023/12/23 08:02:33;;;;;;;;;;;;;;;12.00;88.23;100891.81;7301157;19;20002;-69
2023/12/23 08:05:02;;;;;;;;;;;;;;;11.97;88.29;100889.50;7310321;19;20494;-69
2023/12/23 08:07:32;;;;;;;;;;;;;;;11.96;87.75;100897.56;7302332;19;19946;-69
2023/12/23 08:09:59;;;;;;;;;;;;;;;11.96;87.90;100897.56;7297442;19;19970;-69
2023/12/23 08:12:26;;;;;;;;;;;;;;;11.96;88.28;100916.84;7299023;19;20023;-69
2023/12/23 08:14:53;;;;;;;;;;;;;;;11.95;87.91;100915.19;7305063;19;19918;-68
2023/12/23 08:17:20;;;;;;;;;;;;;;;11.95;88.00;100906.47;7299468;19;19966;-68
2023/12/23 08:19:47;;;;;;;;;;;;;;;11.97;87.60;100915.06;7300469;19;19923;-69
2023/12/23 08:22:14;;;;;;;;;;;;;;;11.99;87.04;100905.16;7293432;19;19923;-69
2023/12/23 08:24:44;;;;;;;;;;;;;;;11.98;86.85;100907.00;7293320;19;19979;-69
2023/12/23 08:27:13;;;;;;;;;;;;;;;11.99;86.52;100887.53;7295096;19;19950;-68
2023/12/23 08:29:41;;;;;;;;;;;;;;;11.99;86.55;100887.53;7297254;19;20416;-68
2023/12/23 08:32:08;;;;;;;;;;;;;;;12.03;86.10;100881.94;7293423;19;20263;-68
2023/12/23 08:34:40;;;;;;;;;;;;;;;12.03;86.41;100874.84;7310939;19;20646;-68
2023/12/23 08:37:09;;;;;;;;;;;;;;;12.02;85.93;100865.28;7295850;19;19927;-69
2023/12/23 08:39:36;;;;;;;;;;;;;;;12.03;85.63;100864.31;7310945;19;20347;-68
2023/12/23 08:42:03;;;;;;;;;;;;;;;12.05;85.25;100857.03;7313526;19;20408;-69
2023/12/23 08:44:30;;;;;;;;;;;;;;;12.05;84.99;100841.22;7305696;19;20003;-68
2023/12/23 08:46:58;;;;;;;;;;;;;;;12.07;84.88;100847.16;7295528;19;20582;-68
2023/12/23 08:49:25;;;;;;;;;;;;;;;12.11;84.27;100843.22;7303715;19;19915;-69
2023/12/23 08:51:54;;;;;;;;;;;;;;;12.14;83.67;100848.16;7288347;19;20481;-69
2023/12/23 08:54:27;;;;;;;;;;;;;;;12.17;83.52;100849.66;7300621;19;21291;-68
2023/12/23 08:56:57;;;;;;;;;;;;;;;12.21;83.26;100859.72;7296762;19;20318;-68
2023/12/23 08:59:24;;;;;;;;;;;;;;;12.19;82.32;100845.06;7302790;19;20353;-68
2023/12/23 09:01:53;;;;;;;;;;;;;;;12.20;82.19;100857.22;7304973;19;19929;-67
2023/12/23 09:04:25;;;;;;;;;;;;;;;12.24;82.61;100858.59;7288479;19;19983;-68
2023/12/23 09:06:52;;;;;;;;;;;;;;;12.25;82.45;100861.03;7297294;19;19937;-67
2023/12/23 09:09:19;;;;;;;;;;;;;;;12.25;81.88;100868.94;7293290;19;20718;-68
2023/12/23 09:11:46;;;;;;;;;;;;;;;12.26;81.78;100864.50;7300576;19;19922;-68
2023/12/23 09:14:14;;;;;;;;;;;;;;;12.28;81.80;100876.56;7289914;19;20539;-68
2023/12/23 09:16:42;;;;;;;;;;;;;;;12.31;82.31;100875.41;7276880;19;19922;-68
2023/12/23 09:19:10;;;;;;;;;;;;;;;12.38;83.15;100886.97;7286844;19;19914;-68
2023/12/23 09:21:38;;;;;;;;;;;;;;;12.42;82.29;100881.19;7285887;19;19926;-68
2023/12/23 09:24:09;;;;;;;;;;;;;;;12.43;81.82;100880.22;7286451;19;20002;-68
2023/12/23 09:26:38;;;;;;;;;;;;;;;12.44;82.12;100881.84;7295892;19;20298;-68
2023/12/23 09:29:06;;;;;;;;;;;;;;;12.46;81.78;100880.84;7283902;19;19967;-68
2023/12/23 09:31:34;;;;;;;;;;;;;;;12.43;81.56;100885.50;7285103;19;19927;-69
2023/12/23 09:34:01;;;;;;;;;;;;;;;12.46;81.87;100892.22;7293404;19;19943;-68
2023/12/23 09:36:29;;;;;;;;;;;;;;;12.50;82.69;100893.56;7295523;19;20790;-69
2023/12/23 09:38:58;;;;;;;;;;;;;;;12.55;82.68;100882.50;7289876;19;20621;-68
2023/12/23 09:41:26;;;;;;;;;;;;;;;12.58;82.62;100896.22;7288425;19;20245;-68
2023/12/23 09:43:54;;;;;;;;;;;;;;;12.61;82.76;100880.03;7286209;19;19926;-67
2023/12/23 09:46:24;;;;;;;;;;;;;;;12.64;82.81;100890.28;7303767;19;20666;-67
2023/12/23 09:48:52;;;;;;;;;;;;;;;12.67;82.54;100897.03;7292605;19;19931;-68
2023/12/23 09:51:31;;;;;;;;;;;;;;;12.69;82.64;100892.44;7294946;19;20214;-68
2023/12/23 09:54:02;;;;;;;;;;;;;;;12.71;82.91;100893.06;7293970;19;19914;-68
2023/12/23 09:56:30;;;;;;;;;;;;;;;12.72;82.63;100894.72;7299316;19;20598;-68
2023/12/23 09:58:58;;;;;;;;;;;;;;;12.74;82.39;100903.31;7311361;19;19926;-68
2023/12/23 10:01:25;;;;;;;;;;;;;;;12.76;82.31;100912.72;7310112;19;20113;-69
2023/12/23 10:03:54;;;;;;;;;;;;;;;12.76;82.26;100901.31;7300935;19;20006;-68
2023/12/23 10:06:22;;;;;;;;;;;;;;;12.76;82.28;100898.69;7301842;19;19915;-68
2023/12/23 10:08:50;;;;;;;;;;;;;;;12.75;82.34;100904.94;7308844;19;19929;-68
2023/12/23 10:11:19;;;;;;;;;;;;;;;12.70;81.61;100908.09;7317957;19;19919;-68
2023/12/23 10:13:49;;;;;;;;;;;;;;;12.70;81.78;100921.28;7301650;19;19915;-68
2023/12/23 10:16:21;;;;;;;;;;;;;;;12.72;81.97;100921.97;7292670;19;20335;-68
2023/12/23 10:18:51;;;;;;;;;;;;;;;12.75;82.12;100924.25;7285327;19;19915;-69
2023/12/23 10:21:19;;;;;;;;;;;;;;;12.78;82.06;100929.22;7292481;19;20030;-69
2023/12/23 10:23:47;;;;;;;;;;;;;;;12.80;82.02;100932.50;7285681;19;20051;-69
2023/12/23 10:26:15;;;;;;;;;;;;;;;12.85;81.40;100929.38;7299382;19;20580;-68
2023/12/23 10:28:43;;;;;;;;;;;;;;;12.87;81.22;100930.03;7299351;19;19950;-70
2023/12/23 10:31:17;;;;;;;;;;;;;;;12.94;81.26;100927.56;7290815;19;19934;-68
2023/12/23 10:33:51;;;;;;;;;;;;;;;12.98;81.23;100936.81;7296831;19;20581;-69
2023/12/23 10:36:20;;;;;;;;;;;;;;;13.04;80.72;100942.28;7294439;19;19918;-68
2023/12/23 10:38:53;;;;;;;;;;;;;;;13.05;80.39;100941.28;7298378;19;20213;-68
2023/12/23 10:41:32;;;;;;;;;;;;;;;13.05;79.92;100937.81;7300503;19;19923;-67
2023/12/23 10:44:05;;;;;;;;;;;;;;;13.08;79.85;100933.00;7291912;19;19990;-68
2023/12/23 10:46:33;;;;;;;;;;;;;;;13.10;79.08;100931.03;7293952;19;19941;-68
2023/12/23 10:49:02;;;;;;;;;;;;;;;13.14;78.51;100932.38;7290391;19;19919;-68
2023/12/23 10:51:31;;;;;;;;;;;;;;;13.17;78.94;100942.59;7289248;19;19923;-67
2023/12/23 10:54:02;;;;;;;;;;;;;;;13.22;78.59;100927.06;7297698;19;20308;-68
2023/12/23 10:56:33;;;;;;;;;;;;;;;13.26;77.25;100924.91;7297123;19;19990;-69
2023/12/23 10:59:02;;;;;;;;;;;;;;;13.31;77.07;100921.78;7304674;19;19969;-68
2023/12/23 11:01:33;;;;;;;;;;;;;;;13.33;77.07;100927.72;7317430;19;19921;-67
2023/12/23 11:04:02;;;;;;;;;;;;;;;13.35;77.44;100913.38;7301731;19;20575;-68
2023/12/23 11:06:31;;;;;;;;;;;;;;;13.38;77.53;100920.13;7294995;19;19926;-68
2023/12/23 11:08:59;;;;;;;;;;;;;;;13.44;77.22;100932.66;7296165;19;20022;-68
2023/12/23 11:11:28;;;;;;;;;;;;;;;13.45;76.21;100927.22;7297341;19;20963;-68
2023/12/23 11:13:58;;;;;;;;;;;;;;;13.47;76.78;100919.94;7301944;19;19946;-68
2023/12/23 11:16:31;;;;;;;;;;;;;;;13.47;76.90;100919.94;7299133;19;19925;-68
2023/12/23 11:19:02;;;;;;;;;;;;;;;13.46;76.31;100920.91;7301988;19;19923;-68
2023/12/23 11:21:30;;;;;;;;;;;;;;;13.48;75.88;100918.94;7284766;19;19914;-68
2023/12/23 11:23:59;;;;;;;;;;;;;;;13.50;75.92;100922.25;7304203;19;20575;-69
2023/12/23 11:26:39;;;;;;;;;;;;;;;13.53;76.15;100902.56;7311149;19;19914;-68
2023/12/23 11:29:07;;;;;;;;;;;;;;;13.54;75.67;100915.63;7291411;19;19915;-68
2023/12/23 11:31:36;;;;;;;;;;;;;;;13.58;75.55;100900.22;7299627;19;20617;-68
2023/12/23 11:34:15;;;;;;;;;;;;;;;13.62;75.01;100896.25;7297824;19;19968;-68
2023/12/23 11:36:44;;;;;;;;;;;;;;;13.65;75.46;100906.50;7300109;19;19927;-68
2023/12/23 11:39:13;;;;;;;;;;;;;;;13.67;75.28;100915.06;7305334;19;20372;-68
2023/12/23 11:41:42;;;;;;;;;;;;;;;13.74;74.96;100917.88;7292595;19;19915;-67
2023/12/23 11:44:11;;;;;;;;;;;;;;;13.73;74.34;100890.59;7301409;19;20446;-68
2023/12/23 11:46:40;;;;;;;;;;;;;;;13.74;74.43;100904.63;7292372;19;20573;-68
2023/12/23 11:49:08;;;;;;;;;;;;;;;13.73;74.80;100911.75;7307004;19;19943;-68
2023/12/23 11:51:47;;;;;;;;;;;;;;;13.76;74.58;100897.38;7294058;19;20714;-69
2023/12/23 11:54:17;;;;;;;;;;;;;;;13.80;74.31;100893.38;7288978;19;20477;-68
2023/12/23 11:56:44;;;;;;;;;;;;;;;13.85;73.61;100891.03;7300739;19;19943;-68
2023/12/23 11:59:11;;;;;;;;;;;;;;;13.91;74.04;100882.41;7317066;19;19923;-68
2023/12/23 12:01:39;;;;;;;;;;;;;;;13.93;73.52;100883.88;7304026;19;19961;-69
2023/12/23 12:04:08;;;;;;;;;;;;;;;13.94;74.26;100887.34;7308053;19;20317;-69
2023/12/23 12:06:35;;;;;;;;;;;;;;;13.95;74.14;100884.53;7302748;19;20267;-68
2023/12/23 12:09:06;;;;;;;;;;;;;;;13.94;73.48;100893.47;7281457;19;19918;-69
2023/12/23 12:11:37;;;;;;;;;;;;;;;13.92;73.46;100889.34;7298300;19;19919;-68
2023/12/23 12:14:07;;;;;;;;;;;;;;;13.89;73.25;100887.88;7306008;19;19914;-71
2023/12/23 12:16:37;;;;;;;;;;;;;;;13.86;73.21;100884.75;7297066;19;19933;-68
2023/12/23 12:19:04;;;;;;;;;;;;;;;13.87;73.54;100875.81;7293652;19;20798;-68
2023/12/23 12:21:35;;;;;;;;;;;;;;;13.86;73.81;100887.41;7287806;19;22627;-68
2023/12/23 12:24:07;;;;;;;;;;;;;;;13.84;73.25;100890.22;7287327;19;20433;-67
2023/12/23 12:26:35;;;;;;;;;;;;;;;13.82;73.11;100884.25;7279857;19;20247;-67
2023/12/23 12:29:03;;;;;;;;;;;;;;;13.83;73.41;100880.63;7296660;19;19929;-68
2023/12/23 12:31:31;;;;;;;;;;;;;;;13.88;73.57;100883.56;7290368;19;19915;-70
2023/12/23 12:33:58;;;;;;;;;;;;;;;13.91;73.98;100883.25;7295287;19;19927;-68
2023/12/23 12:36:25;;;;;;;;;;;;;;;13.95;73.40;100884.53;7289648;19;19927;-68
2023/12/23 12:38:54;;;;;;;;;;;;;;;13.95;73.29;100873.97;7295210;19;19919;-68